sensor_id;sensor_type;location;lat;lon;timestamp;temperature;humidity
20815;DHT22;10568;48.176;16.316;2023-05-20T00:00:32;10.60;99.90
20815;DHT22;10568;48.176;16.316;2023-05-20T00:02:58;10.60;99.90
20815;DHT22;10568;48.176;16.316;2023-05-20T00:05:25;10.50;99.90
20815;DHT22;10568;48.176;16.316;2023-05-20T00:07:51;10.50;99.90
20815;DHT22;10568;48.176;16.316;2023-05-20T00:10:17;10.60;99.90
20815;DHT22;10568;48.176;16.316;2023-05-20T00:12:43;10.50;99.90
20815;DHT22;10568;48.176;16.316;2023-05-20T00:15:08;10.50;99.90
20815;DHT22;10568;48.176;16.316;2023-05-20T00:17:36;10.50;99.90
20815;DHT22;10568;48.176;16.316;2023-05-20T00:20:02;10.50;99.90
20815;DHT22;10568;48.176;16.316;2023-05-20T00:22:30;10.50;99.90
20815;DHT22;10568;48.176;16.316;2023-05-20T00:24:56;10.50;99.90
20815;DHT22;10568;48.176;16.316;2023-05-20T00:27:21;10.40;99.90
20815;DHT22;10568;48.176;16.316;2023-05-20T00:29:47;10.40;99.90
20815;DHT22;10568;48.176;16.316;2023-05-20T00:32:13;10.40;99.90
20815;DHT22;10568;48.176;16.316;2023-05-20T00:34:39;10.40;99.90
20815;DHT22;10568;48.176;16.316;2023-05-20T00:37:04;10.40;99.90
20815;DHT22;10568;48.176;16.316;2023-05-20T00:39:30;10.30;99.90
20815;DHT22;10568;48.176;16.316;2023-05-20T00:41:56;10.40;99.90
20815;DHT22;10568;48.176;16.316;2023-05-20T00:44:25;10.30;99.90
20815;DHT22;10568;48.176;16.316;2023-05-20T00:46:52;10.30;99.90
20815;DHT22;10568;48.176;16.316;2023-05-20T00:49:18;10.30;99.90
20815;DHT22;10568;48.176;16.316;2023-05-20T00:51:45;10.30;99.90
20815;DHT22;10568;48.176;16.316;2023-05-20T00:54:11;10.30;99.90
20815;DHT22;10568;48.176;16.316;2023-05-20T00:56:37;10.30;99.90
20815;DHT22;10568;48.176;16.316;2023-05-20T00:59:03;10.20;99.90
20815;DHT22;10568;48.176;16.316;2023-05-20T01:01:30;10.20;99.90
20815;DHT22;10568;48.176;16.316;2023-05-20T01:03:56;10.20;99.90
20815;DHT22;10568;48.176;16.316;2023-05-20T01:06:22;10.20;99.90
20815;DHT22;10568;48.176;16.316;2023-05-20T01:08:47;10.10;99.90
20815;DHT22;10568;48.176;16.316;2023-05-20T01:11:42;10.10;99.90
20815;DHT22;10568;48.176;16.316;2023-05-20T01:14:10;10.10;99.90
20815;DHT22;10568;48.176;16.316;2023-05-20T01:16:38;10.10;99.90
20815;DHT22;10568;48.176;16.316;2023-05-20T01:19:08;10.10;99.90
20815;DHT22;10568;48.176;16.316;2023-05-20T01:21:37;10.10;99.90
20815;DHT22;10568;48.176;16.316;2023-05-20T01:24:03;10.10;99.90
20815;DHT22;10568;48.176;16.316;2023-05-20T01:26:30;10.00;99.90
20815;DHT22;10568;48.176;16.316;2023-05-20T01:28:55;10.00;99.90
20815;DHT22;10568;48.176;16.316;2023-05-20T01:31:28;10.00;99.90
20815;DHT22;10568;48.176;16.316;2023-05-20T01:33:56;10.00;99.90
20815;DHT22;10568;48.176;16.316;2023-05-20T01:36:23;10.00;99.90
20815;DHT22;10568;48.176;16.316;2023-05-20T01:38:51;10.00;99.90
20815;DHT22;10568;48.176;16.316;2023-05-20T01:41:18;9.90;99.90
20815;DHT22;10568;48.176;16.316;2023-05-20T01:43:45;9.90;99.90
20815;DHT22;10568;48.176;16.316;2023-05-20T01:46:11;9.90;99.90
20815;DHT22;10568;48.176;16.316;2023-05-20T01:48:37;9.90;99.90
20815;DHT22;10568;48.176;16.316;2023-05-20T01:51:02;9.90;99.90
20815;DHT22;10568;48.176;16.316;2023-05-20T01:53:28;9.90;99.90
20815;DHT22;10568;48.176;16.316;2023-05-20T01:55:54;9.90;99.90
20815;DHT22;10568;48.176;16.316;2023-05-20T01:58:20;9.90;99.90
20815;DHT22;10568;48.176;16.316;2023-05-20T02:00:46;9.90;99.90
20815;DHT22;10568;48.176;16.316;2023-05-20T02:03:11;9.80;99.90
20815;DHT22;10568;48.176;16.316;2023-05-20T02:05:37;9.80;99.90
20815;DHT22;10568;48.176;16.316;2023-05-20T02:08:03;9.80;99.90
20815;DHT22;10568;48.176;16.316;2023-05-20T02:10:29;9.80;99.90
20815;DHT22;10568;48.176;16.316;2023-05-20T02:12:54;9.70;99.90
20815;DHT22;10568;48.176;16.316;2023-05-20T02:15:20;9.70;99.90
20815;DHT22;10568;48.176;16.316;2023-05-20T02:17:46;9.70;99.90
20815;DHT22;10568;48.176;16.316;2023-05-20T02:20:13;9.70;99.90
20815;DHT22;10568;48.176;16.316;2023-05-20T02:22:40;9.60;99.90
20815;DHT22;10568;48.176;16.316;2023-05-20T02:25:06;9.60;99.90
20815;DHT22;10568;48.176;16.316;2023-05-20T02:27:32;9.70;99.90
20815;DHT22;10568;48.176;16.316;2023-05-20T02:29:59;9.60;99.90
20815;DHT22;10568;48.176;16.316;2023-05-20T02:32:25;9.60;99.90
20815;DHT22;10568;48.176;16.316;2023-05-20T02:34:54;9.60;99.90
20815;DHT22;10568;48.176;16.316;2023-05-20T02:37:20;9.50;99.90
20815;DHT22;10568;48.176;16.316;2023-05-20T02:39:45;9.50;99.90
20815;DHT22;10568;48.176;16.316;2023-05-20T02:42:11;9.50;99.90
20815;DHT22;10568;48.176;16.316;2023-05-20T02:44:37;9.50;99.90
20815;DHT22;10568;48.176;16.316;2023-05-20T02:47:03;9.50;99.90
20815;DHT22;10568;48.176;16.316;2023-05-20T02:49:28;9.50;99.90
20815;DHT22;10568;48.176;16.316;2023-05-20T02:51:54;9.50;99.90
20815;DHT22;10568;48.176;16.316;2023-05-20T02:54:20;9.50;99.90
20815;DHT22;10568;48.176;16.316;2023-05-20T02:56:45;9.50;99.90
20815;DHT22;10568;48.176;16.316;2023-05-20T02:59:11;9.50;99.90
20815;DHT22;10568;48.176;16.316;2023-05-20T03:01:37;9.50;99.90
20815;DHT22;10568;48.176;16.316;2023-05-20T03:04:05;9.50;99.90
20815;DHT22;10568;48.176;16.316;2023-05-20T03:06:31;9.50;99.90
20815;DHT22;10568;48.176;16.316;2023-05-20T03:08:57;9.40;99.90
20815;DHT22;10568;48.176;16.316;2023-05-20T03:11:24;9.40;99.90
20815;DHT22;10568;48.176;16.316;2023-05-20T03:13:50;9.50;99.90
20815;DHT22;10568;48.176;16.316;2023-05-20T03:16:16;9.40;99.90
20815;DHT22;10568;48.176;16.316;2023-05-20T03:18:43;9.40;99.90
20815;DHT22;10568;48.176;16.316;2023-05-20T03:21:24;9.50;99.90
20815;DHT22;10568;48.176;16.316;2023-05-20T03:23:50;9.40;99.90
20815;DHT22;10568;48.176;16.316;2023-05-20T03:26:16;9.50;99.90
20815;DHT22;10568;48.176;16.316;2023-05-20T03:28:42;9.50;99.90
20815;DHT22;10568;48.176;16.316;2023-05-20T03:31:07;9.50;99.90
20815;DHT22;10568;48.176;16.316;2023-05-20T03:33:34;9.50;99.90
20815;DHT22;10568;48.176;16.316;2023-05-20T03:36:00;9.50;99.90
20815;DHT22;10568;48.176;16.316;2023-05-20T03:38:26;9.50;99.90
20815;DHT22;10568;48.176;16.316;2023-05-20T03:40:51;9.50;99.90
20815;DHT22;10568;48.176;16.316;2023-05-20T03:43:17;9.60;99.90
20815;DHT22;10568;48.176;16.316;2023-05-20T03:45:43;9.60;99.90
20815;DHT22;10568;48.176;16.316;2023-05-20T03:48:09;9.70;99.90
20815;DHT22;10568;48.176;16.316;2023-05-20T03:50:35;9.70;99.90
20815;DHT22;10568;48.176;16.316;2023-05-20T03:53:01;9.70;99.90
20815;DHT22;10568;48.176;16.316;2023-05-20T03:55:26;9.70;99.90
20815;DHT22;10568;48.176;16.316;2023-05-20T03:57:52;9.80;99.90
20815;DHT22;10568;48.176;16.316;2023-05-20T04:00:18;9.80;99.90
20815;DHT22;10568;48.176;16.316;2023-05-20T04:02:44;9.90;99.90
20815;DHT22;10568;48.176;16.316;2023-05-20T04:05:10;9.90;99.90
20815;DHT22;10568;48.176;16.316;2023-05-20T04:07:36;10.00;99.90
20815;DHT22;10568;48.176;16.316;2023-05-20T04:10:03;10.00;99.90
20815;DHT22;10568;48.176;16.316;2023-05-20T04:12:29;10.10;99.90
20815;DHT22;10568;48.176;16.316;2023-05-20T04:14:58;10.10;99.90
20815;DHT22;10568;48.176;16.316;2023-05-20T04:17:27;10.10;99.90
20815;DHT22;10568;48.176;16.316;2023-05-20T04:19:55;10.20;99.90
20815;DHT22;10568;48.176;16.316;2023-05-20T04:22:22;10.20;99.90
20815;DHT22;10568;48.176;16.316;2023-05-20T04:24:48;10.30;99.90
20815;DHT22;10568;48.176;16.316;2023-05-20T04:27:14;10.30;99.90
20815;DHT22;10568;48.176;16.316;2023-05-20T04:29:41;10.40;99.90
20815;DHT22;10568;48.176;16.316;2023-05-20T04:32:13;10.30;99.90
20815;DHT22;10568;48.176;16.316;2023-05-20T04:34:39;10.40;99.90
20815;DHT22;10568;48.176;16.316;2023-05-20T04:37:05;10.40;99.90
20815;DHT22;10568;48.176;16.316;2023-05-20T04:39:34;10.40;99.90
20815;DHT22;10568;48.176;16.316;2023-05-20T04:42:01;10.40;99.90
20815;DHT22;10568;48.176;16.316;2023-05-20T04:44:27;10.50;99.90
20815;DHT22;10568;48.176;16.316;2023-05-20T04:46:54;10.60;99.90
20815;DHT22;10568;48.176;16.316;2023-05-20T04:49:23;10.60;99.90
20815;DHT22;10568;48.176;16.316;2023-05-20T04:51:54;10.70;99.90
20815;DHT22;10568;48.176;16.316;2023-05-20T04:54:20;10.80;99.90
20815;DHT22;10568;48.176;16.316;2023-05-20T04:56:46;10.90;99.90
20815;DHT22;10568;48.176;16.316;2023-05-20T04:59:12;11.00;99.90
20815;DHT22;10568;48.176;16.316;2023-05-20T05:01:38;11.00;99.90
20815;DHT22;10568;48.176;16.316;2023-05-20T05:04:03;11.20;99.90
20815;DHT22;10568;48.176;16.316;2023-05-20T05:06:29;11.30;99.90
20815;DHT22;10568;48.176;16.316;2023-05-20T05:08:56;11.50;99.90
20815;DHT22;10568;48.176;16.316;2023-05-20T05:11:22;11.70;99.90
20815;DHT22;10568;48.176;16.316;2023-05-20T05:13:48;11.90;99.90
20815;DHT22;10568;48.176;16.316;2023-05-20T05:16:13;12.10;99.90
20815;DHT22;10568;48.176;16.316;2023-05-20T05:18:39;12.20;99.90
20815;DHT22;10568;48.176;16.316;2023-05-20T05:21:05;12.40;99.90
20815;DHT22;10568;48.176;16.316;2023-05-20T05:23:32;12.40;99.90
20815;DHT22;10568;48.176;16.316;2023-05-20T05:25:57;12.50;99.90
20815;DHT22;10568;48.176;16.316;2023-05-20T05:28:24;12.70;99.90
20815;DHT22;10568;48.176;16.316;2023-05-20T05:30:50;12.80;99.90
20815;DHT22;10568;48.176;16.316;2023-05-20T05:33:18;13.00;99.90
20815;DHT22;10568;48.176;16.316;2023-05-20T05:35:44;13.10;99.90
20815;DHT22;10568;48.176;16.316;2023-05-20T05:38:09;13.20;99.90
20815;DHT22;10568;48.176;16.316;2023-05-20T05:40:35;13.40;99.90
20815;DHT22;10568;48.176;16.316;2023-05-20T05:43:01;13.40;99.90
20815;DHT22;10568;48.176;16.316;2023-05-20T05:45:27;13.60;99.90
20815;DHT22;10568;48.176;16.316;2023-05-20T05:47:53;13.80;99.90
20815;DHT22;10568;48.176;16.316;2023-05-20T05:50:19;13.80;99.90
20815;DHT22;10568;48.176;16.316;2023-05-20T05:52:45;13.90;99.90
20815;DHT22;10568;48.176;16.316;2023-05-20T05:55:11;14.00;99.90
20815;DHT22;10568;48.176;16.316;2023-05-20T05:57:37;14.10;99.90
20815;DHT22;10568;48.176;16.316;2023-05-20T06:00:03;14.20;99.90
20815;DHT22;10568;48.176;16.316;2023-05-20T06:02:29;14.10;99.90
20815;DHT22;10568;48.176;16.316;2023-05-20T06:04:55;14.30;99.90
20815;DHT22;10568;48.176;16.316;2023-05-20T06:07:21;14.50;99.90
20815;DHT22;10568;48.176;16.316;2023-05-20T06:09:47;14.60;99.90
20815;DHT22;10568;48.176;16.316;2023-05-20T06:12:13;14.60;99.90
20815;DHT22;10568;48.176;16.316;2023-05-20T06:14:38;14.70;99.90
20815;DHT22;10568;48.176;16.316;2023-05-20T06:17:04;14.90;99.90
20815;DHT22;10568;48.176;16.316;2023-05-20T06:19:30;15.10;99.90
20815;DHT22;10568;48.176;16.316;2023-05-20T06:21:56;15.50;99.90
20815;DHT22;10568;48.176;16.316;2023-05-20T06:24:23;15.70;99.90
20815;DHT22;10568;48.176;16.316;2023-05-20T06:26:49;16.60;99.90
20815;DHT22;10568;48.176;16.316;2023-05-20T06:29:15;17.30;99.90
20815;DHT22;10568;48.176;16.316;2023-05-20T06:31:41;17.60;99.90
20815;DHT22;10568;48.176;16.316;2023-05-20T06:34:07;17.90;99.90
20815;DHT22;10568;48.176;16.316;2023-05-20T06:36:32;18.30;99.90
20815;DHT22;10568;48.176;16.316;2023-05-20T06:38:58;18.60;99.90
20815;DHT22;10568;48.176;16.316;2023-05-20T06:41:24;19.00;99.90
20815;DHT22;10568;48.176;16.316;2023-05-20T06:43:51;19.10;99.90
20815;DHT22;10568;48.176;16.316;2023-05-20T06:46:17;19.40;99.90
20815;DHT22;10568;48.176;16.316;2023-05-20T06:48:42;19.50;99.90
20815;DHT22;10568;48.176;16.316;2023-05-20T06:51:08;19.90;99.90
20815;DHT22;10568;48.176;16.316;2023-05-20T06:53:35;20.00;99.90
20815;DHT22;10568;48.176;16.316;2023-05-20T06:56:01;20.10;99.90
20815;DHT22;10568;48.176;16.316;2023-05-20T06:58:27;19.80;99.90
20815;DHT22;10568;48.176;16.316;2023-05-20T07:00:54;19.40;99.90
20815;DHT22;10568;48.176;16.316;2023-05-20T07:03:19;19.30;99.90
20815;DHT22;10568;48.176;16.316;2023-05-20T07:05:46;18.50;99.90
20815;DHT22;10568;48.176;16.316;2023-05-20T07:08:12;18.80;99.90
20815;DHT22;10568;48.176;16.316;2023-05-20T07:10:38;18.90;99.90
20815;DHT22;10568;48.176;16.316;2023-05-20T07:13:03;18.80;99.90
20815;DHT22;10568;48.176;16.316;2023-05-20T07:15:29;18.80;99.90
20815;DHT22;10568;48.176;16.316;2023-05-20T07:17:55;18.70;99.90
20815;DHT22;10568;48.176;16.316;2023-05-20T07:20:20;18.70;99.90
20815;DHT22;10568;48.176;16.316;2023-05-20T07:22:46;18.90;99.90
20815;DHT22;10568;48.176;16.316;2023-05-20T07:25:15;18.90;99.90
20815;DHT22;10568;48.176;16.316;2023-05-20T07:27:40;18.60;99.90
20815;DHT22;10568;48.176;16.316;2023-05-20T07:30:07;18.60;99.90
20815;DHT22;10568;48.176;16.316;2023-05-20T07:32:33;18.70;99.90
20815;DHT22;10568;48.176;16.316;2023-05-20T07:34:59;19.10;99.90
20815;DHT22;10568;48.176;16.316;2023-05-20T07:37:25;19.40;99.90
20815;DHT22;10568;48.176;16.316;2023-05-20T07:39:52;20.00;99.90
20815;DHT22;10568;48.176;16.316;2023-05-20T07:42:18;20.00;99.90
20815;DHT22;10568;48.176;16.316;2023-05-20T07:44:44;20.10;99.90
20815;DHT22;10568;48.176;16.316;2023-05-20T07:47:09;20.20;99.90
20815;DHT22;10568;48.176;16.316;2023-05-20T07:49:35;20.20;99.90
20815;DHT22;10568;48.176;16.316;2023-05-20T07:52:01;20.70;99.90
20815;DHT22;10568;48.176;16.316;2023-05-20T07:54:27;21.10;99.90
20815;DHT22;10568;48.176;16.316;2023-05-20T07:56:53;21.50;99.90
20815;DHT22;10568;48.176;16.316;2023-05-20T07:59:19;21.70;99.90
20815;DHT22;10568;48.176;16.316;2023-05-20T08:01:46;21.60;99.90
20815;DHT22;10568;48.176;16.316;2023-05-20T08:04:11;21.80;99.90
20815;DHT22;10568;48.176;16.316;2023-05-20T08:06:37;21.40;99.90
20815;DHT22;10568;48.176;16.316;2023-05-20T08:09:04;22.10;99.90
20815;DHT22;10568;48.176;16.316;2023-05-20T08:11:30;21.80;99.90
20815;DHT22;10568;48.176;16.316;2023-05-20T08:13:55;22.20;99.90
20815;DHT22;10568;48.176;16.316;2023-05-20T08:16:21;21.60;99.90
20815;DHT22;10568;48.176;16.316;2023-05-20T08:18:47;21.60;99.90
20815;DHT22;10568;48.176;16.316;2023-05-20T08:21:13;21.30;99.90
20815;DHT22;10568;48.176;16.316;2023-05-20T08:23:40;21.50;99.90
20815;DHT22;10568;48.176;16.316;2023-05-20T08:26:06;21.70;99.90
20815;DHT22;10568;48.176;16.316;2023-05-20T08:28:32;21.80;99.90
20815;DHT22;10568;48.176;16.316;2023-05-20T08:31:00;21.80;99.90
20815;DHT22;10568;48.176;16.316;2023-05-20T08:33:26;22.00;99.90
20815;DHT22;10568;48.176;16.316;2023-05-20T08:35:52;22.20;99.90
20815;DHT22;10568;48.176;16.316;2023-05-20T08:38:17;22.50;99.90
20815;DHT22;10568;48.176;16.316;2023-05-20T08:40:43;22.80;99.90
20815;DHT22;10568;48.176;16.316;2023-05-20T08:43:10;22.80;99.90
20815;DHT22;10568;48.176;16.316;2023-05-20T08:45:37;23.00;99.90
20815;DHT22;10568;48.176;16.316;2023-05-20T08:48:03;23.60;99.90
20815;DHT22;10568;48.176;16.316;2023-05-20T08:50:30;23.10;99.90
20815;DHT22;10568;48.176;16.316;2023-05-20T08:52:56;23.10;99.90
20815;DHT22;10568;48.176;16.316;2023-05-20T08:55:42;23.30;99.90
20815;DHT22;10568;48.176;16.316;2023-05-20T08:58:11;22.80;99.90
20815;DHT22;10568;48.176;16.316;2023-05-20T09:00:39;22.40;99.90
20815;DHT22;10568;48.176;16.316;2023-05-20T09:03:07;22.70;99.90
20815;DHT22;10568;48.176;16.316;2023-05-20T09:05:33;22.80;99.90
20815;DHT22;10568;48.176;16.316;2023-05-20T09:08:11;22.70;99.90
20815;DHT22;10568;48.176;16.316;2023-05-20T09:10:38;22.60;99.90
20815;DHT22;10568;48.176;16.316;2023-05-20T09:13:05;22.70;99.90
20815;DHT22;10568;48.176;16.316;2023-05-20T09:15:34;22.90;99.90
20815;DHT22;10568;48.176;16.316;2023-05-20T09:18:02;22.40;99.90
20815;DHT22;10568;48.176;16.316;2023-05-20T09:20:29;22.60;99.90
20815;DHT22;10568;48.176;16.316;2023-05-20T09:23:06;22.50;99.90
20815;DHT22;10568;48.176;16.316;2023-05-20T09:25:33;22.80;99.90
20815;DHT22;10568;48.176;16.316;2023-05-20T09:27:59;23.50;99.90
20815;DHT22;10568;48.176;16.316;2023-05-20T09:30:25;23.80;99.90
20815;DHT22;10568;48.176;16.316;2023-05-20T09:32:55;23.80;99.90
20815;DHT22;10568;48.176;16.316;2023-05-20T09:35:22;24.40;99.90
20815;DHT22;10568;48.176;16.316;2023-05-20T09:37:54;24.80;99.90
20815;DHT22;10568;48.176;16.316;2023-05-20T09:40:25;24.60;99.90
20815;DHT22;10568;48.176;16.316;2023-05-20T09:42:53;24.70;99.90
20815;DHT22;10568;48.176;16.316;2023-05-20T09:45:19;25.00;99.90
20815;DHT22;10568;48.176;16.316;2023-05-20T09:47:48;25.50;99.90
20815;DHT22;10568;48.176;16.316;2023-05-20T09:50:14;25.50;99.90
20815;DHT22;10568;48.176;16.316;2023-05-20T09:52:43;26.10;99.90
20815;DHT22;10568;48.176;16.316;2023-05-20T09:55:09;25.90;99.90
20815;DHT22;10568;48.176;16.316;2023-05-20T09:57:36;26.10;99.90
20815;DHT22;10568;48.176;16.316;2023-05-20T10:00:06;26.50;99.90
20815;DHT22;10568;48.176;16.316;2023-05-20T10:02:40;26.40;99.90
20815;DHT22;10568;48.176;16.316;2023-05-20T10:05:20;26.50;99.90
20815;DHT22;10568;48.176;16.316;2023-05-20T10:07:59;26.30;99.90
20815;DHT22;10568;48.176;16.316;2023-05-20T10:10:38;26.70;99.90
20815;DHT22;10568;48.176;16.316;2023-05-20T10:16:01;27.10;99.90
20815;DHT22;10568;48.176;16.316;2023-05-20T10:21:00;26.90;99.90
20815;DHT22;10568;48.176;16.316;2023-05-20T10:23:29;26.90;99.90
20815;DHT22;10568;48.176;16.316;2023-05-20T10:25:57;27.30;99.90
20815;DHT22;10568;48.176;16.316;2023-05-20T10:28:30;27.20;99.90
20815;DHT22;10568;48.176;16.316;2023-05-20T10:30:57;27.00;99.90
20815;DHT22;10568;48.176;16.316;2023-05-20T10:33:25;27.50;99.90
20815;DHT22;10568;48.176;16.316;2023-05-20T10:35:51;27.70;99.90
20815;DHT22;10568;48.176;16.316;2023-05-20T10:38:17;28.00;99.90
20815;DHT22;10568;48.176;16.316;2023-05-20T10:40:45;27.60;99.90
20815;DHT22;10568;48.176;16.316;2023-05-20T10:43:13;26.90;99.90
20815;DHT22;10568;48.176;16.316;2023-05-20T10:45:55;26.70;99.90
20815;DHT22;10568;48.176;16.316;2023-05-20T10:48:29;26.70;99.90
20815;DHT22;10568;48.176;16.316;2023-05-20T10:51:00;26.70;99.90
20815;DHT22;10568;48.176;16.316;2023-05-20T10:53:37;26.90;99.90
20815;DHT22;10568;48.176;16.316;2023-05-20T10:56:03;27.20;99.90
20815;DHT22;10568;48.176;16.316;2023-05-20T10:58:36;27.60;99.90
20815;DHT22;10568;48.176;16.316;2023-05-20T11:01:03;27.20;99.90
20815;DHT22;10568;48.176;16.316;2023-05-20T11:03:29;27.60;99.90
20815;DHT22;10568;48.176;16.316;2023-05-20T11:05:56;27.60;99.90
20815;DHT22;10568;48.176;16.316;2023-05-20T11:08:21;27.60;99.90
20815;DHT22;10568;48.176;16.316;2023-05-20T11:10:52;27.60;99.90
20815;DHT22;10568;48.176;16.316;2023-05-20T11:13:17;27.20;99.90
20815;DHT22;10568;48.176;16.316;2023-05-20T11:15:43;27.20;99.90
20815;DHT22;10568;48.176;16.316;2023-05-20T11:18:10;26.80;99.90
20815;DHT22;10568;48.176;16.316;2023-05-20T11:20:37;26.20;99.90
20815;DHT22;10568;48.176;16.316;2023-05-20T11:23:05;26.20;99.90
20815;DHT22;10568;48.176;16.316;2023-05-20T11:25:31;25.70;99.90
20815;DHT22;10568;48.176;16.316;2023-05-20T11:27:58;25.60;99.90
20815;DHT22;10568;48.176;16.316;2023-05-20T11:30:24;26.00;99.90
20815;DHT22;10568;48.176;16.316;2023-05-20T11:33:01;26.20;99.90
20815;DHT22;10568;48.176;16.316;2023-05-20T11:35:29;26.40;99.90
20815;DHT22;10568;48.176;16.316;2023-05-20T11:37:55;26.60;99.90
20815;DHT22;10568;48.176;16.316;2023-05-20T11:40:26;27.00;99.90
20815;DHT22;10568;48.176;16.316;2023-05-20T11:42:55;27.40;99.90
20815;DHT22;10568;48.176;16.316;2023-05-20T11:45:22;27.80;99.90
20815;DHT22;10568;48.176;16.316;2023-05-20T11:48:04;27.50;99.90
20815;DHT22;10568;48.176;16.316;2023-05-20T11:50:35;27.20;99.90
20815;DHT22;10568;48.176;16.316;2023-05-20T11:53:04;27.00;99.90
20815;DHT22;10568;48.176;16.316;2023-05-20T11:55:33;27.00;99.90
20815;DHT22;10568;48.176;16.316;2023-05-20T11:58:00;26.70;99.90
20815;DHT22;10568;48.176;16.316;2023-05-20T12:00:27;26.10;99.90
20815;DHT22;10568;48.176;16.316;2023-05-20T12:02:53;26.20;99.90
20815;DHT22;10568;48.176;16.316;2023-05-20T12:05:19;26.10;99.90
20815;DHT22;10568;48.176;16.316;2023-05-20T12:07:45;26.20;99.90
20815;DHT22;10568;48.176;16.316;2023-05-20T12:10:11;26.70;99.90
20815;DHT22;10568;48.176;16.316;2023-05-20T12:12:38;26.80;99.90
20815;DHT22;10568;48.176;16.316;2023-05-20T12:15:04;27.20;99.90
20815;DHT22;10568;48.176;16.316;2023-05-20T12:17:42;27.50;99.90
20815;DHT22;10568;48.176;16.316;2023-05-20T12:20:08;27.80;99.90
20815;DHT22;10568;48.176;16.316;2023-05-20T12:22:34;27.80;99.90
20815;DHT22;10568;48.176;16.316;2023-05-20T12:25:00;27.90;99.90
20815;DHT22;10568;48.176;16.316;2023-05-20T12:27:26;27.90;99.90
20815;DHT22;10568;48.176;16.316;2023-05-20T12:29:52;28.50;99.90
20815;DHT22;10568;48.176;16.316;2023-05-20T12:32:18;28.60;99.90
20815;DHT22;10568;48.176;16.316;2023-05-20T12:34:45;28.90;99.90
20815;DHT22;10568;48.176;16.316;2023-05-20T12:37:11;28.50;99.90
20815;DHT22;10568;48.176;16.316;2023-05-20T12:39:36;28.50;99.90
20815;DHT22;10568;48.176;16.316;2023-05-20T12:42:02;27.90;99.90
20815;DHT22;10568;48.176;16.316;2023-05-20T12:44:28;28.00;99.90
20815;DHT22;10568;48.176;16.316;2023-05-20T12:46:54;27.70;99.90
20815;DHT22;10568;48.176;16.316;2023-05-20T12:49:20;27.60;99.90
20815;DHT22;10568;48.176;16.316;2023-05-20T12:51:46;27.40;99.90
20815;DHT22;10568;48.176;16.316;2023-05-20T12:54:12;27.50;99.90
20815;DHT22;10568;48.176;16.316;2023-05-20T12:56:37;27.70;99.90
20815;DHT22;10568;48.176;16.316;2023-05-20T12:59:04;27.80;99.90
20815;DHT22;10568;48.176;16.316;2023-05-20T13:01:31;27.80;99.90
20815;DHT22;10568;48.176;16.316;2023-05-20T13:03:56;27.30;99.90
20815;DHT22;10568;48.176;16.316;2023-05-20T13:06:23;26.70;99.90
20815;DHT22;10568;48.176;16.316;2023-05-20T13:08:49;26.70;99.90
20815;DHT22;10568;48.176;16.316;2023-05-20T13:11:15;26.80;99.90
20815;DHT22;10568;48.176;16.316;2023-05-20T13:13:40;26.80;99.90
20815;DHT22;10568;48.176;16.316;2023-05-20T13:16:06;27.10;99.90
20815;DHT22;10568;48.176;16.316;2023-05-20T13:18:32;27.20;99.90
20815;DHT22;10568;48.176;16.316;2023-05-20T13:20:58;27.40;99.90
20815;DHT22;10568;48.176;16.316;2023-05-20T13:23:24;27.40;99.90
20815;DHT22;10568;48.176;16.316;2023-05-20T13:25:49;27.40;99.90
20815;DHT22;10568;48.176;16.316;2023-05-20T13:28:15;27.70;99.90
20815;DHT22;10568;48.176;16.316;2023-05-20T13:30:43;27.70;99.90
20815;DHT22;10568;48.176;16.316;2023-05-20T13:33:09;27.70;99.90
20815;DHT22;10568;48.176;16.316;2023-05-20T13:35:35;27.90;99.90
20815;DHT22;10568;48.176;16.316;2023-05-20T13:38:01;27.90;99.90
20815;DHT22;10568;48.176;16.316;2023-05-20T13:40:27;27.90;99.90
20815;DHT22;10568;48.176;16.316;2023-05-20T13:42:53;27.80;99.90
20815;DHT22;10568;48.176;16.316;2023-05-20T13:45:18;27.30;99.90
20815;DHT22;10568;48.176;16.316;2023-05-20T13:47:44;27.00;99.90
20815;DHT22;10568;48.176;16.316;2023-05-20T13:50:10;26.70;99.90
20815;DHT22;10568;48.176;16.316;2023-05-20T13:52:36;26.10;99.90
20815;DHT22;10568;48.176;16.316;2023-05-20T13:55:02;25.80;99.90
20815;DHT22;10568;48.176;16.316;2023-05-20T13:57:28;25.90;99.90
20815;DHT22;10568;48.176;16.316;2023-05-20T13:59:53;25.70;99.90
20815;DHT22;10568;48.176;16.316;2023-05-20T14:02:19;25.80;99.90
20815;DHT22;10568;48.176;16.316;2023-05-20T14:04:45;25.70;99.90
20815;DHT22;10568;48.176;16.316;2023-05-20T14:07:11;25.50;99.90
20815;DHT22;10568;48.176;16.316;2023-05-20T14:09:37;25.50;99.90
20815;DHT22;10568;48.176;16.316;2023-05-20T14:12:04;25.40;99.90
20815;DHT22;10568;48.176;16.316;2023-05-20T14:14:30;25.20;99.90
20815;DHT22;10568;48.176;16.316;2023-05-20T14:16:55;25.20;99.90
20815;DHT22;10568;48.176;16.316;2023-05-20T14:19:21;25.10;99.90
20815;DHT22;10568;48.176;16.316;2023-05-20T14:21:47;25.00;99.90
20815;DHT22;10568;48.176;16.316;2023-05-20T14:24:13;24.90;99.90
20815;DHT22;10568;48.176;16.316;2023-05-20T14:26:38;24.70;99.90
20815;DHT22;10568;48.176;16.316;2023-05-20T14:29:04;24.90;99.90
20815;DHT22;10568;48.176;16.316;2023-05-20T14:31:30;24.80;99.90
20815;DHT22;10568;48.176;16.316;2023-05-20T14:33:56;24.90;99.90
20815;DHT22;10568;48.176;16.316;2023-05-20T14:36:21;25.00;99.90
20815;DHT22;10568;48.176;16.316;2023-05-20T14:38:47;24.90;99.90
20815;DHT22;10568;48.176;16.316;2023-05-20T14:41:13;24.80;99.90
20815;DHT22;10568;48.176;16.316;2023-05-20T14:43:39;24.70;99.90
20815;DHT22;10568;48.176;16.316;2023-05-20T14:46:05;24.70;99.90
20815;DHT22;10568;48.176;16.316;2023-05-20T14:48:30;24.70;99.90
20815;DHT22;10568;48.176;16.316;2023-05-20T14:50:56;24.60;99.90
20815;DHT22;10568;48.176;16.316;2023-05-20T14:53:22;24.60;99.90
20815;DHT22;10568;48.176;16.316;2023-05-20T14:55:48;24.60;99.90
20815;DHT22;10568;48.176;16.316;2023-05-20T14:58:13;24.60;99.90
20815;DHT22;10568;48.176;16.316;2023-05-20T15:00:39;24.50;99.90
20815;DHT22;10568;48.176;16.316;2023-05-20T15:03:05;24.60;99.90
20815;DHT22;10568;48.176;16.316;2023-05-20T15:05:30;24.60;99.90
20815;DHT22;10568;48.176;16.316;2023-05-20T15:07:56;24.60;99.90
20815;DHT22;10568;48.176;16.316;2023-05-20T15:10:22;24.60;99.90
20815;DHT22;10568;48.176;16.316;2023-05-20T15:12:48;24.60;99.90
20815;DHT22;10568;48.176;16.316;2023-05-20T15:15:13;24.60;99.90
20815;DHT22;10568;48.176;16.316;2023-05-20T15:17:39;24.60;99.90
20815;DHT22;10568;48.176;16.316;2023-05-20T15:20:05;24.50;99.90